Time;durP1;ratioP1;P1;durP2;ratioP2;P2;SDS_P1;SDS_P2;PMS_P1;PMS_P2;Temp;Humidity;BMP_temperature;BMP_pressure;BME280_temperature;BME280_humidity;BME280_pressure;Samples;Min_cycle;Max_cycle;Signal;HPM_P1;HPM_P2
2024/02/10 00:01:18;;;;;;;521.92;38.58;;;11.30;72.90;;;6.58;100.00;93007.13;4970088;28;20022;-54
2024/02/10 00:03:45;;;;;;;404.92;36.10;;;11.30;72.90;;;6.55;100.00;93014.88;4970125;28;20034;-56
2024/02/10 00:06:15;;;;;;;206.02;28.50;;;11.30;73.00;;;6.49;100.00;93011.59;4970794;28;20535;-53
2024/02/10 00:08:45;;;;;;;225.63;31.02;;;11.30;73.00;;;6.46;100.00;93006.91;4968390;28;20033;-55
2024/02/10 00:11:12;;;;;;;305.80;31.27;;;11.30;73.00;;;6.48;100.00;93000.22;4977201;28;20048;-51
2024/02/10 00:13:41;;;;;;;296.25;30.27;;;11.20;73.00;;;6.49;100.00;92996.50;4973890;28;20018;-56
2024/02/10 00:16:08;;;;;;;193.90;27.67;;;11.20;73.10;;;6.45;100.00;92992.88;4973133;28;20112;-54
2024/02/10 00:18:34;;;;;;;200.55;28.77;;;11.20;73.10;;;6.42;100.00;92987.41;4974887;28;20081;-54
2024/02/10 00:21:02;;;;;;;217.10;29.17;;;11.20;73.10;;;6.40;100.00;92982.44;4974651;28;20030;-56
2024/02/10 00:23:28;;;;;;;327.13;33.50;;;11.20;73.10;;;6.40;100.00;92992.25;4973730;28;20452;-55
2024/02/10 00:25:54;;;;;;;185.05;28.20;;;11.20;73.20;;;6.41;100.00;92985.84;4974118;28;20046;-56
2024/02/10 00:28:21;;;;;;;350.70;32.20;;;11.10;73.10;;;6.39;100.00;92980.88;4974281;28;20488;-54
2024/02/10 00:30:48;;;;;;;670.38;57.08;;;11.10;73.10;;;6.38;100.00;92976.66;4973182;28;20042;-51
2024/02/10 00:33:14;;;;;;;374.25;35.30;;;11.10;73.10;;;6.33;100.00;92968.88;4973484;28;20041;-52
2024/02/10 00:35:40;;;;;;;324.00;33.05;;;11.10;73.10;;;6.29;100.00;92970.53;4965427;28;20121;-51
2024/02/10 00:38:06;;;;;;;317.33;33.25;;;11.10;73.10;;;6.25;100.00;92959.00;4973665;28;20101;-50
2024/02/10 00:40:32;;;;;;;290.85;31.35;;;11.10;73.10;;;6.22;100.00;92963.03;4974931;28;20026;-54
2024/02/10 00:42:58;;;;;;;412.13;35.25;;;11.00;73.00;;;6.22;100.00;92963.03;4972137;28;20105;-53
2024/02/10 00:45:24;;;;;;;123.75;26.77;;;11.00;73.20;;;6.22;100.00;92963.03;4973549;28;20022;-54
2024/02/10 00:47:52;;;;;;;108.43;28.17;;;11.00;73.20;;;6.21;100.00;92958.06;4972903;28;20022;-54
2024/02/10 00:50:18;;;;;;;125.32;26.85;;;11.00;73.30;;;6.22;100.00;92959.59;4972242;28;20488;-55
2024/02/10 00:52:49;;;;;;;111.78;26.55;;;10.90;73.30;;;6.21;100.00;92960.69;4973490;28;20042;-54
2024/02/10 00:55:17;;;;;;;98.90;24.50;;;10.90;73.40;;;6.23;100.00;92955.88;4972710;28;20041;-56
2024/02/10 00:57:43;;;;;;;78.18;25.02;;;10.90;73.50;;;6.23;100.00;92955.88;4973444;28;20092;-55
2024/02/10 01:00:16;;;;;;;91.07;25.88;;;10.90;73.60;;;6.23;100.00;92954.00;4970213;28;20085;-53
2024/02/10 01:02:46;;;;;;;105.03;25.33;;;11.00;73.60;;;6.25;100.00;92956.34;4969494;28;20022;-55
2024/02/10 01:05:14;;;;;;;96.07;23.27;;;11.00;73.70;;;6.24;100.00;92957.44;4972106;28;20125;-57
2024/02/10 01:07:40;;;;;;;107.97;24.80;;;11.00;73.70;;;6.23;100.00;92967.22;4969209;28;20029;-55
2024/02/10 01:10:08;;;;;;;90.57;24.20;;;11.00;73.70;;;6.19;100.00;92962.84;4973245;28;20049;-56
2024/02/10 01:12:34;;;;;;;70.93;24.20;;;11.00;73.70;;;6.19;100.00;92953.06;4972120;28;20389;-54
2024/02/10 01:15:00;;;;;;;77.68;25.45;;;11.00;73.80;;;6.23;100.00;92947.94;4972483;28;20513;-56
2024/02/10 01:17:27;;;;;;;73.65;25.20;;;11.00;73.90;;;6.31;100.00;92941.94;4973033;28;20050;-55
2024/02/10 01:19:54;;;;;;;75.75;25.42;;;11.00;73.90;;;6.33;100.00;92933.69;4970501;28;20041;-54
2024/02/10 01:22:26;;;;;;;74.60;23.42;;;11.00;74.00;;;6.36;100.00;92933.09;4973221;28;20022;-56
2024/02/10 01:24:56;;;;;;;70.55;22.60;;;11.00;74.00;;;6.35;100.00;92928.91;4971195;28;20022;-56
2024/02/10 01:27:28;;;;;;;74.95;22.83;;;11.00;73.90;;;6.35;100.00;92927.03;4972721;28;20058;-53
2024/02/10 01:29:57;;;;;;;66.20;22.35;;;11.00;73.90;;;6.37;100.00;92914.28;4970500;28;20612;-54
2024/02/10 01:32:24;;;;;;;70.05;21.92;;;11.00;73.90;;;6.35;100.00;92916.44;4972942;28;20432;-55
2024/02/10 01:34:53;;;;;;;73.53;21.92;;;11.10;73.80;;;6.30;100.00;92913.16;4972524;28;20030;-51
2024/02/10 01:37:23;;;;;;;62.05;20.77;;;11.00;73.60;;;6.22;100.00;92909.38;4971744;28;20025;-56
2024/02/10 01:39:53;;;;;;;65.45;21.83;;;11.00;73.50;;;6.16;100.00;92916.66;4966593;28;20381;-52
2024/02/10 01:42:28;;;;;;;71.07;22.75;;;10.90;73.40;;;6.13;100.00;92911.19;4969824;28;20046;-52
2024/02/10 01:44:54;;;;;;;67.82;21.20;;;10.90;73.40;;;6.06;100.00;92911.59;4967984;28;20477;-55
2024/02/10 01:47:20;;;;;;;72.43;22.58;;;10.90;73.40;;;6.01;100.00;92907.22;4972665;28;20105;-54
2024/02/10 01:49:46;;;;;;;80.07;21.58;;;10.90;73.30;;;5.97;100.00;92898.34;4971425;28;20069;-56
2024/02/10 01:52:12;;;;;;;73.72;24.60;;;10.80;73.30;;;5.93;100.00;92901.88;4971254;28;20049;-54
2024/02/10 01:54:40;;;;;;;66.40;21.85;;;10.80;73.30;;;5.92;100.00;92887.06;4969679;28;20034;-51
2024/02/10 01:57:08;;;;;;;72.65;21.80;;;10.80;73.30;;;5.88;100.00;92876.31;4972319;28;20105;-56
2024/02/10 01:59:37;;;;;;;67.95;21.35;;;10.70;73.30;;;5.84;100.00;92874.59;4970854;28;20026;-50
2024/02/10 02:02:05;;;;;;;73.13;23.23;;;10.70;73.30;;;5.85;100.00;92870.88;4971872;28;20015;-56
2024/02/10 02:04:35;;;;;;;72.85;21.85;;;10.70;73.40;;;5.83;100.00;92865.09;4971718;28;20392;-51
2024/02/10 02:07:10;;;;;;;74.95;21.42;;;10.70;73.50;;;5.67;100.00;92860.19;4970918;28;20120;-55
2024/02/10 02:09:38;;;;;;;72.75;22.88;;;10.60;73.40;;;5.76;100.00;92860.22;4972084;28;20034;-55
2024/02/10 02:12:09;;;;;;;81.28;24.35;;;10.60;73.40;;;5.78;100.00;92864.13;4970922;28;20030;-54
2024/02/10 02:14:37;;;;;;;86.97;24.35;;;10.60;73.50;;;5.78;100.00;92866.00;4971634;28;20396;-53
2024/02/10 02:17:09;;;;;;;69.78;21.08;;;10.60;73.50;;;5.75;100.00;92863.97;4972057;28;20022;-54
2024/02/10 02:19:40;;;;;;;81.85;23.92;;;10.60;73.50;;;5.78;100.00;92866.78;4982987;28;20100;-53
2024/02/10 02:22:10;;;;;;;73.93;23.65;;;10.60;73.50;;;5.78;100.00;92863.34;4972188;28;20062;-53
2024/02/10 02:24:36;;;;;;;86.05;25.42;;;10.60;73.60;;;5.78;100.00;92863.34;4970038;28;20522;-51
2024/02/10 02:27:07;;;;;;;71.15;23.02;;;10.60;73.70;;;5.79;100.00;92865.69;4971695;28;20029;-51
2024/02/10 02:29:32;;;;;;;75.68;22.83;;;10.60;73.60;;;5.75;100.00;92843.59;4986399;28;20026;-52
2024/02/10 02:32:00;;;;;;;70.95;23.02;;;10.60;73.70;;;5.78;100.00;92845.66;4969960;28;20025;-50
2024/02/10 02:34:28;;;;;;;80.72;24.42;;;10.60;73.70;;;5.76;100.00;92842.50;4971342;28;20392;-52
2024/02/10 02:36:54;;;;;;;74.45;22.48;;;10.60;73.70;;;5.68;100.00;92845.13;4969592;28;20105;-52
2024/02/10 02:39:21;;;;;;;76.88;22.63;;;10.60;73.70;;;5.67;100.00;92838.25;4971815;28;20180;-52
2024/02/10 02:41:48;;;;;;;79.88;23.67;;;10.50;73.60;;;5.71;100.00;92823.38;4970544;28;20019;-50
2024/02/10 02:44:16;;;;;;;76.70;22.30;;;10.50;73.70;;;5.72;100.00;92825.72;4970930;28;20049;-50
2024/02/10 02:46:44;;;;;;;70.35;21.77;;;10.50;73.70;;;5.71;100.00;92810.19;4968613;28;20064;-53
2024/02/10 02:49:15;;;;;;;70.75;22.67;;;10.50;73.70;;;5.67;100.00;92811.84;4970414;28;20037;-56
2024/02/10 02:51:42;;;;;;;76.13;22.00;;;10.40;73.60;;;5.65;100.00;92814.03;4970351;28;20095;-51
2024/02/10 02:54:08;;;;;;;74.43;21.92;;;10.40;73.60;;;5.59;100.00;92808.06;4969807;28;20033;-54
2024/02/10 02:56:35;;;;;;;71.57;22.08;;;10.40;73.60;;;5.61;100.00;92802.47;4971091;28;20036;-55
2024/02/10 02:59:01;;;;;;;105.05;23.35;;;10.40;73.60;;;5.57;100.00;92800.44;4971178;28;20029;-55
2024/02/10 03:01:26;;;;;;;67.68;20.23;;;10.40;73.60;;;5.53;100.00;92799.50;4967571;28;20025;-53
2024/02/10 03:03:52;;;;;;;62.70;19.48;;;10.30;73.60;;;5.39;100.00;92803.25;4970690;28;20034;-56
2024/02/10 03:06:20;;;;;;;65.07;19.52;;;10.30;73.50;;;5.35;100.00;92795.16;4970006;28;20393;-56
2024/02/10 03:08:47;;;;;;;63.70;20.10;;;10.30;73.50;;;5.31;100.00;92794.22;4971088;28;20055;-54
2024/02/10 03:11:19;;;;;;;69.18;20.65;;;10.20;73.40;;;5.29;100.00;92797.13;4970993;28;20050;-50
2024/02/10 03:13:48;;;;;;;87.97;22.20;;;10.20;73.30;;;5.23;100.00;92798.34;4969533;28;20133;-54
2024/02/10 03:16:19;;;;;;;94.53;23.35;;;10.10;73.40;;;5.19;100.00;92792.09;4971007;28;20041;-54
2024/02/10 03:18:46;;;;;;;76.90;21.08;;;10.10;73.40;;;5.15;100.00;92798.28;4961945;28;20125;-55
2024/02/10 03:21:17;;;;;;;81.63;22.13;;;10.10;73.40;;;5.10;100.00;92799.16;4971977;28;20031;-54
2024/02/10 03:23:44;;;;;;;87.70;22.13;;;10.00;73.30;;;5.09;100.00;92797.59;4967010;28;20085;-53
2024/02/10 03:26:11;;;;;;;84.75;23.15;;;10.00;73.30;;;5.08;100.00;92790.78;4970619;28;20026;-50
2024/02/10 03:28:38;;;;;;;82.53;21.55;;;10.00;73.40;;;5.08;100.00;92793.41;4970708;28;20361;-53
2024/02/10 03:31:07;;;;;;;79.30;22.00;;;9.90;73.40;;;5.08;100.00;92794.19;4969232;28;20034;-53
2024/02/10 03:33:34;;;;;;;94.82;23.90;;;10.00;73.50;;;5.06;100.00;92796.34;4968876;28;20495;-54
2024/02/10 03:36:02;;;;;;;88.22;24.10;;;9.90;73.50;;;5.05;100.00;92802.69;4969659;28;20077;-51
2024/02/10 03:38:31;;;;;;;79.85;21.90;;;9.90;73.60;;;5.01;100.00;92803.56;4970350;28;20129;-53
2024/02/10 03:40:56;;;;;;;74.50;22.15;;;9.90;73.50;;;4.98;100.00;92814.72;4970650;28;20022;-53
2024/02/10 03:43:26;;;;;;;79.00;22.65;;;9.90;73.60;;;4.98;100.00;92818.16;4968706;28;20096;-55
2024/02/10 03:45:54;;;;;;;96.60;23.67;;;9.90;73.60;;;4.95;100.00;92815.31;4970409;28;20113;-54
2024/02/10 03:48:20;;;;;;;79.15;22.88;;;9.90;73.60;;;4.95;100.00;92810.84;4967039;28;20022;-56
2024/02/10 03:50:46;;;;;;;76.32;22.05;;;9.90;73.70;;;4.99;100.00;92801.25;4970483;28;20109;-56
2024/02/10 03:53:12;;;;;;;76.65;22.52;;;9.90;73.70;;;4.99;100.00;92801.25;4969872;28;20110;-53
2024/02/10 03:55:38;;;;;;;81.68;22.45;;;9.90;73.80;;;5.00;100.00;92802.78;4968010;28;20029;-52
2024/02/10 03:58:09;;;;;;;75.57;21.80;;;9.90;73.80;;;5.04;100.00;92803.75;4970416;28;20018;-56
2024/02/10 04:00:36;;;;;;;69.97;21.30;;;9.90;73.80;;;5.06;100.00;92793.69;4969439;28;20032;-53
2024/02/10 04:03:04;;;;;;;69.47;21.15;;;9.90;73.80;;;5.08;100.00;92790.78;4970110;28;20014;-50
2024/02/10 04:05:38;;;;;;;79.40;21.70;;;9.90;73.80;;;5.06;100.00;92782.38;4967721;28;20022;-55
2024/02/10 04:08:08;;;;;;;74.28;21.73;;;9.90;73.70;;;5.06;100.00;92782.38;4970381;28;20104;-52
2024/02/10 04:10:34;;;;;;;76.47;21.30;;;10.00;73.70;;;5.06;100.00;92788.41;4970057;28;20037;-55
2024/02/10 04:13:02;;;;;;;78.28;22.40;;;10.00;73.80;;;5.09;100.00;92787.03;4968856;28;20018;-56
2024/02/10 04:15:30;;;;;;;82.90;21.67;;;10.00;73.80;;;5.08;100.00;92786.28;4970100;28;20456;-52
2024/02/10 04:17:56;;;;;;;80.03;21.17;;;10.00;73.80;;;5.09;100.00;92779.91;4967929;28;20280;-52
2024/02/10 04:20:25;;;;;;;87.75;21.65;;;10.00;73.80;;;5.06;100.00;92777.88;4968220;28;20037;-54
2024/02/10 04:22:52;;;;;;;86.07;22.83;;;10.00;73.90;;;5.09;100.00;92782.53;4970612;28;20109;-53
2024/02/10 04:25:19;;;;;;;98.85;23.42;;;10.00;73.90;;;5.16;100.00;92784.78;4969328;28;20121;-50
2024/02/10 04:27:45;;;;;;;82.85;22.33;;;10.00;73.90;;;5.19;100.00;92784.16;4970337;28;20129;-51
2024/02/10 04:30:13;;;;;;;87.20;22.90;;;10.00;74.00;;;5.23;100.00;92779.88;4972153;28;20029;-56
2024/02/10 04:32:46;;;;;;;81.50;21.55;;;10.00;74.00;;;5.25;100.00;92776.94;4970482;28;20033;-55
2024/02/10 04:35:14;;;;;;;76.85;21.33;;;10.10;74.00;;;5.27;100.00;92774.78;4970166;28;20061;-55
2024/02/10 04:37:51;;;;;;;85.30;23.00;;;10.10;74.00;;;5.28;100.00;92769.19;4969342;28;20073;-55
2024/02/10 04:40:18;;;;;;;85.40;24.30;;;10.20;74.10;;;5.29;100.00;92762.03;4970128;28;20114;-55
2024/02/10 04:42:45;;;;;;;86.53;24.60;;;10.20;74.00;;;5.33;100.00;92763.03;4970541;28;20022;-55
2024/02/10 04:45:27;;;;;;;87.20;21.90;;;10.20;74.00;;;5.36;100.00;92751.06;4970738;28;20130;-51
2024/02/10 04:47:54;;;;;;;84.80;22.67;;;10.20;74.10;;;5.37;100.00;92745.50;4972278;28;20123;-55
2024/02/10 04:50:21;;;;;;;84.95;21.20;;;10.20;74.00;;;5.40;100.00;92749.41;4971807;28;20117;-51
2024/02/10 04:52:47;;;;;;;84.47;22.27;;;10.30;74.00;;;5.42;100.00;92749.88;4970822;28;20022;-54
2024/02/10 04:55:15;;;;;;;66.18;20.95;;;10.30;74.00;;;5.41;100.00;92745.66;4973764;28;20026;-54
2024/02/10 04:57:45;;;;;;;79.07;21.35;;;10.30;74.00;;;5.45;100.00;92749.25;4976378;28;20024;-53
2024/02/10 05:00:16;;;;;;;72.07;21.38;;;10.30;74.70;;;5.45;100.00;92743.97;4974196;28;20139;-54
2024/02/10 05:02:44;;;;;;;71.65;21.73;;;10.30;74.00;;;5.48;100.00;92751.31;4973915;28;20444;-54
2024/02/10 05:05:11;;;;;;;72.13;21.30;;;10.40;74.00;;;5.46;100.00;92741.06;4975515;28;20545;-55
2024/02/10 05:07:53;;;;;;;81.07;21.63;;;10.30;74.00;;;5.48;100.00;92748.66;4974215;28;20481;-51
2024/02/10 05:10:20;;;;;;;82.85;21.13;;;10.40;74.00;;;5.37;100.00;92732.28;4956734;28;20034;-56
2024/02/10 05:12:48;;;;;;;82.40;20.27;;;10.40;73.90;;;5.41;100.00;92730.59;4965481;28;20023;-53
2024/02/10 05:15:22;;;;;;;78.35;20.27;;;10.40;73.80;;;5.41;100.00;92724.56;4976845;28;20061;-52
2024/02/10 05:17:51;;;;;;;86.78;20.70;;;10.40;73.70;;;5.39;100.00;92721.41;4973399;28;20022;-53
2024/02/10 05:20:22;;;;;;;70.97;20.63;;;10.40;73.70;;;5.34;100.00;92728.38;4971692;28;20617;-55
2024/02/10 05:22:50;;;;;;;79.00;20.77;;;10.30;73.60;;;5.34;100.00;92722.34;4969250;28;20037;-56
2024/02/10 05:25:23;;;;;;;91.25;22.52;;;10.30;73.70;;;5.38;100.00;92717.22;4968139;28;20026;-53
2024/02/10 05:27:50;;;;;;;77.53;22.42;;;10.30;73.70;;;5.39;100.00;92724.88;4967869;28;20026;-52
2024/02/10 05:30:20;;;;;;;72.70;21.05;;;10.30;73.70;;;5.39;100.00;92724.88;4971435;28;20041;-56
2024/02/10 05:32:51;;;;;;;72.43;20.85;;;10.30;73.80;;;5.41;100.00;92727.97;4963459;28;20022;-53
2024/02/10 05:35:20;;;;;;;79.03;21.48;;;10.30;73.80;;;5.42;100.00;92728.75;4966650;28;20493;-55
2024/02/10 05:37:54;;;;;;;78.25;21.52;;;10.30;73.90;;;5.42;100.00;92718.97;4967370;28;20380;-54
2024/02/10 05:40:23;;;;;;;70.28;19.58;;;10.30;73.90;;;5.44;100.00;92716.03;4965893;28;20026;-53
2024/02/10 05:42:51;;;;;;;74.88;21.23;;;10.30;74.00;;;5.46;100.00;92714.66;4964854;28;20018;-53
2024/02/10 05:45:20;;;;;;;86.97;25.00;;;10.30;74.00;;;5.49;100.00;92715.91;4967208;23;20076;-51
2024/02/10 05:47:51;;;;;;;82.50;23.95;;;10.30;74.10;;;5.54;100.00;92710.50;4951191;28;20420;-52
2024/02/10 05:50:22;;;;;;;77.22;23.88;;;10.40;74.30;;;5.59;100.00;92707.72;4954147;28;20043;-50
2024/02/10 05:52:57;;;;;;;73.18;23.45;;;10.30;74.30;;;5.62;100.00;92701.84;4947300;28;20019;-50
2024/02/10 05:55:26;;;;;;;73.97;23.77;;;10.40;74.50;;;5.63;100.00;92702.63;4952827;28;20030;-52
2024/02/10 05:58:03;;;;;;;71.15;23.20;;;10.40;74.50;;;5.70;100.00;92697.69;4954017;28;20034;-55
2024/02/10 06:00:31;;;;;;;66.70;21.50;;;10.50;74.70;;;5.74;100.00;92699.41;4951067;28;20555;-52
2024/02/10 06:02:59;;;;;;;59.20;21.05;;;10.50;74.80;;;5.82;100.00;92697.13;4953975;28;20038;-56
2024/02/10 06:05:25;;;;;;;62.40;20.63;;;10.50;74.70;;;5.82;100.00;92697.88;4952778;28;20098;-53
2024/02/10 06:07:52;;;;;;;72.07;22.85;;;10.50;74.70;;;5.76;100.00;92689.31;4948970;28;20029;-50
2024/02/10 06:10:18;;;;;;;63.10;21.13;;;10.60;74.70;;;5.78;100.00;92689.03;4953679;28;20114;-56
2024/02/10 06:12:50;;;;;;;64.68;21.17;;;10.60;74.70;;;5.79;100.00;92683.41;4952431;28;20014;-51
2024/02/10 06:15:19;;;;;;;59.50;21.08;;;10.60;74.60;;;5.83;100.00;92698.66;4953608;28;20084;-51
2024/02/10 06:17:52;;;;;;;72.40;23.25;;;10.60;74.60;;;5.80;100.00;92700.84;4948059;28;20030;-55
2024/02/10 06:20:22;;;;;;;73.25;22.88;;;10.60;74.60;;;5.79;100.00;92695.84;4950185;28;20441;-51
2024/02/10 06:22:53;;;;;;;66.47;24.67;;;10.60;74.50;;;5.72;100.00;92682.31;4953580;28;20035;-52
2024/02/10 06:25:25;;;;;;;63.88;21.98;;;10.60;74.50;;;5.73;100.00;92692.56;4952306;28;20396;-51
2024/02/10 06:28:01;;;;;;;72.55;22.10;;;10.60;74.40;;;5.76;100.00;92691.94;4953329;28;20026;-55
2024/02/10 06:30:33;;;;;;;70.70;23.67;;;10.60;74.50;;;5.80;100.00;92703.50;4952686;28;20030;-53
2024/02/10 06:32:59;;;;;;;64.07;22.15;;;10.60;74.40;;;5.81;100.00;92701.63;4950788;28;20537;-54
2024/02/10 06:35:27;;;;;;;59.53;20.65;;;10.60;74.40;;;5.79;100.00;92698.50;4953072;28;20046;-52
2024/02/10 06:37:54;;;;;;;55.80;20.70;;;10.60;74.30;;;5.74;100.00;92694.13;4952345;28;20035;-55
2024/02/10 06:40:20;;;;;;;58.25;21.13;;;10.60;74.10;;;5.71;100.00;92700.03;4953377;28;20105;-50
2024/02/10 06:42:50;;;;;;;54.55;20.42;;;10.60;74.00;;;5.66;100.00;92696.72;4952139;28;20574;-52
2024/02/10 06:45:20;;;;;;;43.70;18.50;;;10.60;74.00;;;5.61;100.00;92695.00;4945555;28;20502;-51
2024/02/10 06:47:47;;;;;;;47.67;19.17;;;10.50;73.90;;;5.59;100.00;92699.03;4951901;28;20026;-55
2024/02/10 06:50:14;;;;;;;52.92;19.38;;;10.50;73.90;;;5.56;100.00;92703.84;4952551;28;20366;-52
2024/02/10 06:52:45;;;;;;;59.05;19.42;;;10.40;73.80;;;5.51;100.00;92711.09;4951571;28;20110;-50
2024/02/10 06:55:12;;;;;;;53.50;20.02;;;10.40;73.80;;;5.48;100.00;92709.81;4951906;28;20037;-50
2024/02/10 06:57:43;;;;;;;56.35;18.48;;;10.40;73.80;;;5.47;100.00;92703.00;4952656;28;20030;-50
2024/02/10 07:00:16;;;;;;;50.85;18.88;;;10.40;73.80;;;5.45;100.00;92715.75;4950383;28;20122;-51
2024/02/10 07:02:44;;;;;;;49.60;19.20;;;10.40;73.80;;;5.44;100.00;92716.81;4945066;28;20393;-49
2024/02/10 07:05:13;;;;;;;45.53;18.10;;;10.40;73.80;;;5.43;100.00;92715.25;4952519;28;20300;-50
2024/02/10 07:07:41;;;;;;;49.42;18.20;;;10.40;73.80;;;5.38;100.00;92712.72;4951727;28;20413;-50
2024/02/10 07:10:20;;;;;;;58.20;19.63;;;10.40;73.80;;;5.39;100.00;92714.31;4952969;28;20045;-50
2024/02/10 07:12:49;;;;;;;56.13;21.40;;;10.40;73.80;;;5.35;100.00;92713.31;4951769;28;20054;-50
2024/02/10 07:15:29;;;;;;;57.63;21.13;;;10.30;73.70;;;5.37;100.00;92708.53;4952401;28;20030;-50
2024/02/10 07:17:55;;;;;;;62.55;22.52;;;10.30;73.70;;;5.38;100.00;92717.22;4946852;28;20042;-52
2024/02/10 07:20:26;;;;;;;57.03;20.10;;;10.30;73.80;;;5.39;100.00;92719.59;4951613;28;20050;-51
2024/02/10 07:22:57;;;;;;;60.00;20.58;;;10.30;73.90;;;5.40;100.00;92713.22;4952512;28;20441;-50
2024/02/10 07:25:25;;;;;;;61.88;21.55;;;10.30;73.90;;;5.42;100.00;92721.63;4947106;28;20104;-56
2024/02/10 07:27:52;;;;;;;61.53;22.30;;;10.30;73.90;;;5.43;100.00;92722.41;4951448;28;20022;-50
2024/02/10 07:30:20;;;;;;;60.83;22.63;;;10.40;74.00;;;5.43;100.00;92719.75;4944759;28;20030;-50
2024/02/10 07:32:48;;;;;;;69.97;24.40;;;10.40;74.00;;;5.42;100.00;92726.09;4943926;28;20093;-51
2024/02/10 07:35:16;;;;;;;72.93;24.27;;;10.30;74.00;;;5.44;100.00;92730.00;4947601;28;20110;-50
2024/02/10 07:37:44;;;;;;;67.47;24.48;;;10.30;74.00;;;5.44;100.00;92730.00;4946766;28;20548;-51
2024/02/10 07:40:11;;;;;;;69.63;23.98;;;10.40;74.10;;;5.37;100.00;92729.66;4950653;28;20085;-51
2024/02/10 07:42:37;;;;;;;69.50;24.00;;;10.40;74.10;;;5.39;100.00;92730.16;4951035;28;20588;-51
2024/02/10 07:45:04;;;;;;;70.63;23.98;;;10.40;74.10;;;5.47;100.00;92736.53;4951908;28;20058;-52
2024/02/10 07:47:30;;;;;;;68.20;23.83;;;10.40;74.20;;;5.50;100.00;92734.09;4951885;28;20026;-52
2024/02/10 07:49:58;;;;;;;73.38;25.23;;;10.40;74.20;;;5.57;100.00;92736.28;4951150;28;20122;-50
2024/02/10 07:52:31;;;;;;;76.03;26.00;;;10.50;74.40;;;5.63;100.00;92729.81;4949795;28;20080;-51
2024/02/10 07:54:57;;;;;;;70.93;23.13;;;10.50;74.40;;;5.60;100.00;92725.13;4950726;28;20037;-51
2024/02/10 07:57:25;;;;;;;66.20;24.10;;;10.50;74.40;;;5.65;100.00;92729.50;4951803;28;20164;-52
2024/02/10 07:59:55;;;;;;;62.10;24.38;;;10.60;74.50;;;5.70;100.00;92734.66;4951129;28;20030;-52
2024/02/10 08:02:26;;;;;;;61.42;22.85;;;10.60;74.50;;;5.74;100.00;92739.03;4951948;28;20019;-50
2024/02/10 08:04:56;;;;;;;59.13;21.42;;;10.70;74.50;;;5.81;100.00;92741.25;4952000;28;20034;-52
2024/02/10 08:07:29;;;;;;;55.15;21.67;;;10.70;74.50;;;5.80;100.00;92724.63;4950556;28;20535;-51
2024/02/10 08:10:00;;;;;;;47.00;20.10;;;10.80;74.40;;;5.86;100.00;92717.34;4951879;28;20034;-51
2024/02/10 08:12:27;;;;;;;53.85;20.75;;;10.80;74.30;;;5.89;100.00;92722.03;4950982;28;20118;-55
2024/02/10 08:14:55;;;;;;;52.85;21.05;;;10.90;74.30;;;5.92;100.00;92716.13;4951768;28;20436;-54
2024/02/10 08:17:26;;;;;;;60.25;22.30;;;10.90;74.20;;;5.94;100.00;92713.19;4950410;28;20088;-54
2024/02/10 08:19:56;;;;;;;54.47;21.30;;;10.90;74.10;;;5.94;100.00;92702.63;4950473;28;20066;-50
2024/02/10 08:22:24;;;;;;;49.88;20.80;;;11.00;74.10;;;5.92;100.00;92691.56;4951914;28;20027;-51
2024/02/10 08:24:55;;;;;;;56.35;22.27;;;11.00;74.00;;;5.89;100.00;92697.44;4949723;28;20046;-49
2024/02/10 08:27:29;;;;;;;53.53;21.65;;;11.00;73.90;;;5.84;100.00;92693.09;4950663;28;20114;-48
2024/02/10 08:29:58;;;;;;;57.78;22.13;;;11.00;73.90;;;5.84;100.00;92694.97;4951932;28;20049;-49
2024/02/10 08:32:25;;;;;;;61.92;22.35;;;11.00;73.90;;;5.87;100.00;92684.56;4955260;28;20592;-49
2024/02/10 08:34:51;;;;;;;52.70;21.85;;;10.90;73.80;;;5.87;100.00;92691.72;4952918;28;20043;-52
2024/02/10 08:37:18;;;;;;;53.40;21.23;;;11.00;73.90;;;5.90;100.00;92680.53;4952654;28;20094;-56
2024/02/10 08:39:46;;;;;;;61.63;22.38;;;11.00;74.60;;;5.88;100.00;92672.13;4955759;28;20026;-51
2024/02/10 08:42:16;;;;;;;70.50;25.20;;;11.00;74.00;;;5.86;100.00;92671.63;4953895;28;20058;-48
2024/02/10 08:44:45;;;;;;;67.85;24.70;;;11.00;74.00;;;5.89;100.00;92684.22;4950382;28;20052;-49
2024/02/10 08:47:12;;;;;;;57.08;22.17;;;11.00;74.00;;;5.94;100.00;92677.00;4954383;28;20027;-51
2024/02/10 08:49:39;;;;;;;61.35;23.85;;;11.00;74.00;;;5.86;100.00;92669.78;4953603;28;20112;-50
2024/02/10 08:52:13;;;;;;;65.43;25.25;;;11.10;74.00;;;5.86;100.00;92663.72;4954298;28;20050;-49
2024/02/10 08:54:39;;;;;;;73.53;25.25;;;11.10;74.00;;;5.85;100.00;92660.28;4953113;28;20030;-50
2024/02/10 08:57:09;;;;;;;64.53;25.00;;;11.00;73.90;;;5.84;100.00;92660.63;4954257;28;20109;-49
2024/02/10 08:59:43;;;;;;;76.30;26.25;;;11.00;73.90;;;5.77;100.00;92667.13;4954065;28;20160;-51
2024/02/10 09:02:10;;;;;;;68.60;24.75;;;11.00;73.90;;;5.80;100.00;92669.16;4953827;28;20096;-48
2024/02/10 09:04:40;;;;;;;64.93;24.67;;;11.00;73.90;;;5.85;100.00;92667.44;4960363;28;20079;-49
2024/02/10 09:07:07;;;;;;;74.75;26.52;;;11.00;74.00;;;5.87;100.00;92665.28;4953180;28;20035;-49
2024/02/10 09:09:34;;;;;;;74.22;25.02;;;11.00;74.00;;;5.95;100.00;92667.97;4953796;28;20078;-50
2024/02/10 09:12:00;;;;;;;77.50;26.13;;;11.00;74.20;;;5.95;100.00;92659.25;4953146;28;20110;-48
2024/02/10 09:14:26;;;;;;;75.93;27.17;;;11.00;74.20;;;5.97;100.00;92647.31;4953628;28;20026;-48
2024/02/10 09:16:52;;;;;;;71.55;25.92;;;11.00;74.20;;;5.99;100.00;92644.38;4954137;28;20464;-48
2024/02/10 09:19:20;;;;;;;77.32;27.13;;;11.00;74.20;;;6.00;100.00;92645.94;4953099;28;20034;-48
2024/02/10 09:21:55;;;;;;;81.22;28.25;;;11.00;74.10;;;5.97;100.00;92642.03;4953408;28;20386;-53
2024/02/10 09:24:26;;;;;;;71.68;26.85;;;11.10;74.20;;;5.93;100.00;92627.88;4951606;28;20022;-48
2024/02/10 09:26:53;;;;;;;75.25;27.65;;;11.00;74.20;;;5.92;100.00;92628.94;4952408;28;20039;-49
2024/02/10 09:29:19;;;;;;;78.45;27.92;;;11.00;74.10;;;6.01;100.00;92628.97;4950786;28;20034;-53
2024/02/10 09:31:47;;;;;;;74.68;26.88;;;11.10;74.30;;;6.01;100.00;92629.75;4951707;28;20080;-50
2024/02/10 09:34:14;;;;;;;80.15;25.85;;;11.10;74.30;;;6.00;100.00;92614.22;4953518;28;20058;-51
2024/02/10 09:36:43;;;;;;;81.43;27.95;;;11.10;74.30;;;6.01;100.00;92602.56;4952509;28;20074;-50
2024/02/10 09:39:12;;;;;;;85.10;29.83;;;11.10;74.30;;;5.99;100.00;92597.59;4953446;28;20110;-49
2024/02/10 09:41:42;;;;;;;74.38;28.58;;;11.10;74.30;;;6.01;100.00;92603.31;4950091;28;20022;-51
2024/02/10 09:44:10;;;;;;;77.63;28.45;;;11.10;74.30;;;5.97;100.00;92599.75;4950573;28;20481;-53
2024/02/10 09:46:37;;;;;;;82.68;28.98;;;11.10;74.20;;;5.96;100.00;92585.00;4953527;28;20504;-51
2024/02/10 09:49:09;;;;;;;76.28;29.02;;;11.10;74.20;;;5.95;100.00;92599.28;4952479;28;20445;-53
2024/02/10 09:51:42;;;;;;;70.80;27.92;;;11.10;74.20;;;6.02;100.00;92590.91;4952087;28;20126;-54
2024/02/10 09:54:11;;;;;;;68.00;26.42;;;11.10;74.20;;;6.05;100.00;92597.44;4952180;28;20034;-57
2024/02/10 09:56:37;;;;;;;67.43;26.52;;;11.10;74.30;;;6.09;100.00;92596.50;4953109;28;20030;-54
2024/02/10 09:59:07;;;;;;;60.58;27.10;;;11.20;74.30;;;6.09;100.00;92582.53;4953317;28;20370;-54
2024/02/10 10:01:36;;;;;;;64.85;26.00;;;11.10;74.30;;;6.08;100.00;92587.03;4948603;28;20575;-56
2024/02/10 10:04:02;;;;;;;63.65;26.80;;;11.20;74.30;;;6.05;100.00;92586.84;4941601;28;20425;-57
2024/02/10 10:06:28;;;;;;;59.53;26.35;;;11.20;74.30;;;6.02;100.00;92573.19;4951782;28;20023;-57
2024/02/10 10:08:57;;;;;;;60.35;27.17;;;11.20;74.30;;;6.03;100.00;92556.25;4953366;28;20113;-54
2024/02/10 10:11:23;;;;;;;63.03;25.52;;;11.30;74.30;;;6.05;100.00;92561.22;4953524;28;20026;-51